sensor_id;sensor_type;location;lat;lon;timestamp;P1;P2;P0
72329;PMS5003;69154;52.076;5.110;2023-05-15T00:00:28;61;58;
72329;PMS5003;69154;52.076;5.110;2023-05-15T00:02:53;56;51;
72329;PMS5003;69154;52.076;5.110;2023-05-15T00:05:19;61;54;
72329;PMS5003;69154;52.076;5.110;2023-05-15T00:07:44;58;50;
72329;PMS5003;69154;52.076;5.110;2023-05-15T00:10:10;68;62;
72329;PMS5003;69154;52.076;5.110;2023-05-15T00:12:35;64;57;
72329;PMS5003;69154;52.076;5.110;2023-05-15T00:15:01;60;55;
72329;PMS5003;69154;52.076;5.110;2023-05-15T00:17:26;64;56;
72329;PMS5003;69154;52.076;5.110;2023-05-15T00:19:51;58;52;
72329;PMS5003;69154;52.076;5.110;2023-05-15T00:22:16;63;57;
72329;PMS5003;69154;52.076;5.110;2023-05-15T00:24:42;60;52;
72329;PMS5003;69154;52.076;5.110;2023-05-15T00:27:07;60;56;
72329;PMS5003;69154;52.076;5.110;2023-05-15T00:29:33;61;56;
72329;PMS5003;69154;52.076;5.110;2023-05-15T00:31:59;58;54;
72329;PMS5003;69154;52.076;5.110;2023-05-15T00:34:24;61;55;
72329;PMS5003;69154;52.076;5.110;2023-05-15T00:36:50;56;53;
72329;PMS5003;69154;52.076;5.110;2023-05-15T00:39:15;66;56;
72329;PMS5003;69154;52.076;5.110;2023-05-15T00:41:40;64;55;
72329;PMS5003;69154;52.076;5.110;2023-05-15T00:44:06;65;57;
72329;PMS5003;69154;52.076;5.110;2023-05-15T00:46:31;66;61;
72329;PMS5003;69154;52.076;5.110;2023-05-15T00:48:56;62;55;
72329;PMS5003;69154;52.076;5.110;2023-05-15T00:51:21;66;54;
72329;PMS5003;69154;52.076;5.110;2023-05-15T00:53:47;77;67;
72329;PMS5003;69154;52.076;5.110;2023-05-15T00:56:12;67;60;
72329;PMS5003;69154;52.076;5.110;2023-05-15T00:58:38;75;61;
72329;PMS5003;69154;52.076;5.110;2023-05-15T01:01:04;67;59;
72329;PMS5003;69154;52.076;5.110;2023-05-15T01:03:29;73;65;
72329;PMS5003;69154;52.076;5.110;2023-05-15T01:05:55;81;73;
72329;PMS5003;69154;52.076;5.110;2023-05-15T01:08:22;72;61;
72329;PMS5003;69154;52.076;5.110;2023-05-15T01:10:46;67;64;
72329;PMS5003;69154;52.076;5.110;2023-05-15T01:13:11;75;71;
72329;PMS5003;69154;52.076;5.110;2023-05-15T01:15:37;74;65;
72329;PMS5003;69154;52.076;5.110;2023-05-15T01:18:02;74;69;
72329;PMS5003;69154;52.076;5.110;2023-05-15T01:20:27;76;66;
72329;PMS5003;69154;52.076;5.110;2023-05-15T01:22:57;72;64;
72329;PMS5003;69154;52.076;5.110;2023-05-15T01:25:41;74;65;
72329;PMS5003;69154;52.076;5.110;2023-05-15T01:27:44;72;68;
72329;PMS5003;69154;52.076;5.110;2023-05-15T01:30:11;71;68;
72329;PMS5003;69154;52.076;5.110;2023-05-15T01:32:37;80;70;
72329;PMS5003;69154;52.076;5.110;2023-05-15T01:35:02;79;70;
72329;PMS5003;69154;52.076;5.110;2023-05-15T01:37:25;77;64;
72329;PMS5003;69154;52.076;5.110;2023-05-15T01:39:52;71;66;
72329;PMS5003;69154;52.076;5.110;2023-05-15T01:42:15;77;67;
72329;PMS5003;69154;52.076;5.110;2023-05-15T01:44:42;71;63;
72329;PMS5003;69154;52.076;5.110;2023-05-15T01:47:09;72;65;
72329;PMS5003;69154;52.076;5.110;2023-05-15T01:49:31;62;57;
72329;PMS5003;69154;52.076;5.110;2023-05-15T01:51:58;66;62;
72329;PMS5003;69154;52.076;5.110;2023-05-15T01:54:22;75;62;
72329;PMS5003;69154;52.076;5.110;2023-05-15T01:56:48;79;67;
72329;PMS5003;69154;52.076;5.110;2023-05-15T01:59:14;68;64;
72329;PMS5003;69154;52.076;5.110;2023-05-15T02:01:39;74;68;
72329;PMS5003;69154;52.076;5.110;2023-05-15T02:04:05;71;65;
72329;PMS5003;69154;52.076;5.110;2023-05-15T02:06:30;74;68;
72329;PMS5003;69154;52.076;5.110;2023-05-15T02:08:56;75;61;
72329;PMS5003;69154;52.076;5.110;2023-05-15T02:11:21;71;64;
72329;PMS5003;69154;52.076;5.110;2023-05-15T02:13:47;67;59;
72329;PMS5003;69154;52.076;5.110;2023-05-15T02:16:13;70;63;
72329;PMS5003;69154;52.076;5.110;2023-05-15T02:18:38;74;61;
72329;PMS5003;69154;52.076;5.110;2023-05-15T02:21:03;63;57;
72329;PMS5003;69154;52.076;5.110;2023-05-15T02:23:29;71;61;
72329;PMS5003;69154;52.076;5.110;2023-05-15T02:26:00;70;60;
72329;PMS5003;69154;52.076;5.110;2023-05-15T02:28:21;66;61;
72329;PMS5003;69154;52.076;5.110;2023-05-15T02:30:53;71;55;
72329;PMS5003;69154;52.076;5.110;2023-05-15T02:33:11;63;53;
72329;PMS5003;69154;52.076;5.110;2023-05-15T02:35:37;58;51;
72329;PMS5003;69154;52.076;5.110;2023-05-15T02:38:02;60;49;
72329;PMS5003;69154;52.076;5.110;2023-05-15T02:40:28;57;51;
72329;PMS5003;69154;52.076;5.110;2023-05-15T02:42:52;65;50;
72329;PMS5003;69154;52.076;5.110;2023-05-15T02:45:18;65;55;
72329;PMS5003;69154;52.076;5.110;2023-05-15T02:47:43;54;49;
72329;PMS5003;69154;52.076;5.110;2023-05-15T02:50:09;63;54;
72329;PMS5003;69154;52.076;5.110;2023-05-15T02:52:34;61;54;
72329;PMS5003;69154;52.076;5.110;2023-05-15T02:54:59;62;59;
72329;PMS5003;69154;52.076;5.110;2023-05-15T02:57:25;67;55;
72329;PMS5003;69154;52.076;5.110;2023-05-15T02:59:51;69;61;
72329;PMS5003;69154;52.076;5.110;2023-05-15T03:02:15;59;57;
72329;PMS5003;69154;52.076;5.110;2023-05-15T03:04:40;61;57;
72329;PMS5003;69154;52.076;5.110;2023-05-15T03:07:06;61;57;
72329;PMS5003;69154;52.076;5.110;2023-05-15T03:09:31;61;56;
72329;PMS5003;69154;52.076;5.110;2023-05-15T03:11:57;68;61;
72329;PMS5003;69154;52.076;5.110;2023-05-15T03:14:22;59;56;
72329;PMS5003;69154;52.076;5.110;2023-05-15T03:16:47;59;54;
72329;PMS5003;69154;52.076;5.110;2023-05-15T03:19:13;65;55;
72329;PMS5003;69154;52.076;5.110;2023-05-15T03:21:38;61;57;
72329;PMS5003;69154;52.076;5.110;2023-05-15T03:24:04;60;56;
72329;PMS5003;69154;52.076;5.110;2023-05-15T03:26:30;60;52;
72329;PMS5003;69154;52.076;5.110;2023-05-15T03:28:56;64;59;
72329;PMS5003;69154;52.076;5.110;2023-05-15T03:31:20;72;65;
72329;PMS5003;69154;52.076;5.110;2023-05-15T03:33:45;65;59;
72329;PMS5003;69154;52.076;5.110;2023-05-15T03:36:11;55;53;
72329;PMS5003;69154;52.076;5.110;2023-05-15T03:38:36;51;46;
72329;PMS5003;69154;52.076;5.110;2023-05-15T03:41:02;58;51;
72329;PMS5003;69154;52.076;5.110;2023-05-15T03:43:27;55;52;
72329;PMS5003;69154;52.076;5.110;2023-05-15T03:45:52;64;57;
72329;PMS5003;69154;52.076;5.110;2023-05-15T03:48:18;51;48;
72329;PMS5003;69154;52.076;5.110;2023-05-15T03:50:43;49;48;
72329;PMS5003;69154;52.076;5.110;2023-05-15T03:53:09;52;49;
72329;PMS5003;69154;52.076;5.110;2023-05-15T03:55:34;63;53;
72329;PMS5003;69154;52.076;5.110;2023-05-15T03:57:59;67;59;
72329;PMS5003;69154;52.076;5.110;2023-05-15T04:00:24;58;51;
72329;PMS5003;69154;52.076;5.110;2023-05-15T04:02:50;51;48;
72329;PMS5003;69154;52.076;5.110;2023-05-15T04:05:16;67;61;
72329;PMS5003;69154;52.076;5.110;2023-05-15T04:07:41;69;61;
72329;PMS5003;69154;52.076;5.110;2023-05-15T04:10:07;75;66;
72329;PMS5003;69154;52.076;5.110;2023-05-15T04:12:33;83;70;
72329;PMS5003;69154;52.076;5.110;2023-05-15T04:14:58;71;60;
72329;PMS5003;69154;52.076;5.110;2023-05-15T04:17:22;64;61;
72329;PMS5003;69154;52.076;5.110;2023-05-15T04:19:48;51;47;
72329;PMS5003;69154;52.076;5.110;2023-05-15T04:22:13;45;45;
72329;PMS5003;69154;52.076;5.110;2023-05-15T04:24:39;48;47;
72329;PMS5003;69154;52.076;5.110;2023-05-15T04:27:04;49;43;
72329;PMS5003;69154;52.076;5.110;2023-05-15T04:29:30;42;38;
72329;PMS5003;69154;52.076;5.110;2023-05-15T04:31:55;51;46;
72329;PMS5003;69154;52.076;5.110;2023-05-15T04:34:20;40;36;
72329;PMS5003;69154;52.076;5.110;2023-05-15T04:36:46;48;43;
72329;PMS5003;69154;52.076;5.110;2023-05-15T04:39:12;59;48;
72329;PMS5003;69154;52.076;5.110;2023-05-15T04:41:37;61;57;
72329;PMS5003;69154;52.076;5.110;2023-05-15T04:44:03;68;62;
72329;PMS5003;69154;52.076;5.110;2023-05-15T04:46:29;68;60;
72329;PMS5003;69154;52.076;5.110;2023-05-15T04:48:54;62;60;
72329;PMS5003;69154;52.076;5.110;2023-05-15T04:51:19;56;55;
72329;PMS5003;69154;52.076;5.110;2023-05-15T04:53:44;59;57;
72329;PMS5003;69154;52.076;5.110;2023-05-15T04:56:10;66;59;
72329;PMS5003;69154;52.076;5.110;2023-05-15T04:58:36;67;61;
72329;PMS5003;69154;52.076;5.110;2023-05-15T05:01:01;62;59;
72329;PMS5003;69154;52.076;5.110;2023-05-15T05:03:27;63;58;
72329;PMS5003;69154;52.076;5.110;2023-05-15T05:05:52;60;56;
72329;PMS5003;69154;52.076;5.110;2023-05-15T05:08:18;65;54;
72329;PMS5003;69154;52.076;5.110;2023-05-15T05:10:43;61;57;
72329;PMS5003;69154;52.076;5.110;2023-05-15T05:13:09;59;56;
72329;PMS5003;69154;52.076;5.110;2023-05-15T05:15:34;51;48;
72329;PMS5003;69154;52.076;5.110;2023-05-15T05:18:00;59;56;
72329;PMS5003;69154;52.076;5.110;2023-05-15T05:20:25;49;44;
72329;PMS5003;69154;52.076;5.110;2023-05-15T05:22:51;62;58;
72329;PMS5003;69154;52.076;5.110;2023-05-15T05:25:16;69;58;
72329;PMS5003;69154;52.076;5.110;2023-05-15T05:27:41;53;49;
72329;PMS5003;69154;52.076;5.110;2023-05-15T05:30:07;58;55;
72329;PMS5003;69154;52.076;5.110;2023-05-15T05:32:32;62;54;
72329;PMS5003;69154;52.076;5.110;2023-05-15T05:34:57;60;55;
72329;PMS5003;69154;52.076;5.110;2023-05-15T05:37:23;53;48;
72329;PMS5003;69154;52.076;5.110;2023-05-15T05:39:48;58;52;
72329;PMS5003;69154;52.076;5.110;2023-05-15T05:42:13;56;51;
72329;PMS5003;69154;52.076;5.110;2023-05-15T05:44:39;62;54;
72329;PMS5003;69154;52.076;5.110;2023-05-15T05:47:04;67;61;
72329;PMS5003;69154;52.076;5.110;2023-05-15T05:49:29;54;50;
72329;PMS5003;69154;52.076;5.110;2023-05-15T05:51:55;60;52;
72329;PMS5003;69154;52.076;5.110;2023-05-15T05:54:20;53;51;
72329;PMS5003;69154;52.076;5.110;2023-05-15T05:56:45;57;51;
72329;PMS5003;69154;52.076;5.110;2023-05-15T05:59:11;62;53;
72329;PMS5003;69154;52.076;5.110;2023-05-15T06:01:37;62;58;
72329;PMS5003;69154;52.076;5.110;2023-05-15T06:04:03;57;55;
72329;PMS5003;69154;52.076;5.110;2023-05-15T06:06:28;50;49;
72329;PMS5003;69154;52.076;5.110;2023-05-15T06:08:54;58;54;
72329;PMS5003;69154;52.076;5.110;2023-05-15T06:11:19;50;50;
72329;PMS5003;69154;52.076;5.110;2023-05-15T06:13:45;56;54;
72329;PMS5003;69154;52.076;5.110;2023-05-15T06:16:10;57;53;
72329;PMS5003;69154;52.076;5.110;2023-05-15T06:18:36;51;46;
72329;PMS5003;69154;52.076;5.110;2023-05-15T06:21:02;58;57;
72329;PMS5003;69154;52.076;5.110;2023-05-15T06:23:27;54;48;
72329;PMS5003;69154;52.076;5.110;2023-05-15T06:25:53;49;47;
72329;PMS5003;69154;52.076;5.110;2023-05-15T06:28:18;62;55;
72329;PMS5003;69154;52.076;5.110;2023-05-15T06:30:44;56;53;
72329;PMS5003;69154;52.076;5.110;2023-05-15T06:33:09;56;51;
72329;PMS5003;69154;52.076;5.110;2023-05-15T06:35:35;51;46;
72329;PMS5003;69154;52.076;5.110;2023-05-15T06:38:00;52;49;
72329;PMS5003;69154;52.076;5.110;2023-05-15T06:40:25;54;52;
72329;PMS5003;69154;52.076;5.110;2023-05-15T06:42:51;59;56;
72329;PMS5003;69154;52.076;5.110;2023-05-15T06:45:16;47;44;
72329;PMS5003;69154;52.076;5.110;2023-05-15T06:47:41;53;52;
72329;PMS5003;69154;52.076;5.110;2023-05-15T06:50:07;60;54;
72329;PMS5003;69154;52.076;5.110;2023-05-15T06:52:32;44;42;
72329;PMS5003;69154;52.076;5.110;2023-05-15T06:54:58;53;50;
72329;PMS5003;69154;52.076;5.110;2023-05-15T06:57:24;52;48;
72329;PMS5003;69154;52.076;5.110;2023-05-15T06:59:49;43;39;
72329;PMS5003;69154;52.076;5.110;2023-05-15T07:02:15;46;44;
72329;PMS5003;69154;52.076;5.110;2023-05-15T07:04:40;47;45;
72329;PMS5003;69154;52.076;5.110;2023-05-15T07:07:06;49;49;
72329;PMS5003;69154;52.076;5.110;2023-05-15T07:09:31;45;45;
72329;PMS5003;69154;52.076;5.110;2023-05-15T07:11:57;46;45;
72329;PMS5003;69154;52.076;5.110;2023-05-15T07:14:23;53;49;
72329;PMS5003;69154;52.076;5.110;2023-05-15T07:16:48;48;47;
72329;PMS5003;69154;52.076;5.110;2023-05-15T07:19:16;46;44;
72329;PMS5003;69154;52.076;5.110;2023-05-15T07:21:39;50;48;
72329;PMS5003;69154;52.076;5.110;2023-05-15T07:24:05;42;40;
72329;PMS5003;69154;52.076;5.110;2023-05-15T07:26:31;50;50;
72329;PMS5003;69154;52.076;5.110;2023-05-15T07:28:56;45;45;
72329;PMS5003;69154;52.076;5.110;2023-05-15T07:31:21;49;47;
72329;PMS5003;69154;52.076;5.110;2023-05-15T07:33:47;49;45;
72329;PMS5003;69154;52.076;5.110;2023-05-15T07:36:12;52;50;
72329;PMS5003;69154;52.076;5.110;2023-05-15T07:38:38;33;32;
72329;PMS5003;69154;52.076;5.110;2023-05-15T07:41:03;49;46;
72329;PMS5003;69154;52.076;5.110;2023-05-15T07:43:29;40;39;
72329;PMS5003;69154;52.076;5.110;2023-05-15T07:45:54;43;42;
72329;PMS5003;69154;52.076;5.110;2023-05-15T07:48:20;45;44;
72329;PMS5003;69154;52.076;5.110;2023-05-15T07:50:46;39;39;
72329;PMS5003;69154;52.076;5.110;2023-05-15T07:53:11;43;41;
72329;PMS5003;69154;52.076;5.110;2023-05-15T07:55:36;34;33;
72329;PMS5003;69154;52.076;5.110;2023-05-15T07:58:02;46;42;
72329;PMS5003;69154;52.076;5.110;2023-05-15T08:00:27;48;45;
72329;PMS5003;69154;52.076;5.110;2023-05-15T08:02:52;34;34;
72329;PMS5003;69154;52.076;5.110;2023-05-15T08:05:18;44;43;
72329;PMS5003;69154;52.076;5.110;2023-05-15T08:07:43;40;39;
72329;PMS5003;69154;52.076;5.110;2023-05-15T08:10:09;35;34;
72329;PMS5003;69154;52.076;5.110;2023-05-15T08:12:33;42;40;
72329;PMS5003;69154;52.076;5.110;2023-05-15T08:14:58;47;44;
72329;PMS5003;69154;52.076;5.110;2023-05-15T08:17:24;41;40;
72329;PMS5003;69154;52.076;5.110;2023-05-15T08:19:50;38;36;
72329;PMS5003;69154;52.076;5.110;2023-05-15T08:22:15;42;39;
72329;PMS5003;69154;52.076;5.110;2023-05-15T08:24:41;44;42;
72329;PMS5003;69154;52.076;5.110;2023-05-15T08:27:06;35;34;
72329;PMS5003;69154;52.076;5.110;2023-05-15T08:29:32;40;39;
72329;PMS5003;69154;52.076;5.110;2023-05-15T08:31:57;49;46;
72329;PMS5003;69154;52.076;5.110;2023-05-15T08:34:23;44;43;
72329;PMS5003;69154;52.076;5.110;2023-05-15T08:36:48;48;47;
72329;PMS5003;69154;52.076;5.110;2023-05-15T08:39:13;43;41;
72329;PMS5003;69154;52.076;5.110;2023-05-15T08:41:39;45;43;
72329;PMS5003;69154;52.076;5.110;2023-05-15T08:44:03;39;39;
72329;PMS5003;69154;52.076;5.110;2023-05-15T08:46:29;44;42;
72329;PMS5003;69154;52.076;5.110;2023-05-15T08:48:54;45;42;
72329;PMS5003;69154;52.076;5.110;2023-05-15T08:51:21;41;40;
72329;PMS5003;69154;52.076;5.110;2023-05-15T08:53:45;44;42;
72329;PMS5003;69154;52.076;5.110;2023-05-15T08:56:11;41;41;
72329;PMS5003;69154;52.076;5.110;2023-05-15T08:58:36;43;40;
72329;PMS5003;69154;52.076;5.110;2023-05-15T09:01:02;44;41;
72329;PMS5003;69154;52.076;5.110;2023-05-15T09:03:27;41;38;
72329;PMS5003;69154;52.076;5.110;2023-05-15T09:05:52;47;42;
72329;PMS5003;69154;52.076;5.110;2023-05-15T09:08:18;41;39;
72329;PMS5003;69154;52.076;5.110;2023-05-15T09:10:43;44;44;
72329;PMS5003;69154;52.076;5.110;2023-05-15T09:13:09;44;43;
72329;PMS5003;69154;52.076;5.110;2023-05-15T09:15:34;46;46;
72329;PMS5003;69154;52.076;5.110;2023-05-15T09:18:00;56;51;
72329;PMS5003;69154;52.076;5.110;2023-05-15T09:20:26;49;44;
72329;PMS5003;69154;52.076;5.110;2023-05-15T09:22:51;49;48;
72329;PMS5003;69154;52.076;5.110;2023-05-15T09:25:20;56;52;
72329;PMS5003;69154;52.076;5.110;2023-05-15T09:27:42;51;46;
72329;PMS5003;69154;52.076;5.110;2023-05-15T09:30:08;51;47;
72329;PMS5003;69154;52.076;5.110;2023-05-15T09:32:33;54;48;
72329;PMS5003;69154;52.076;5.110;2023-05-15T09:34:58;52;41;
72329;PMS5003;69154;52.076;5.110;2023-05-15T09:37:28;52;50;
72329;PMS5003;69154;52.076;5.110;2023-05-15T09:39:50;51;49;
72329;PMS5003;69154;52.076;5.110;2023-05-15T09:42:15;52;48;
72329;PMS5003;69154;52.076;5.110;2023-05-15T09:44:41;51;45;
72329;PMS5003;69154;52.076;5.110;2023-05-15T09:47:06;50;49;
72329;PMS5003;69154;52.076;5.110;2023-05-15T09:49:31;47;44;
72329;PMS5003;69154;52.076;5.110;2023-05-15T09:51:57;52;45;
72329;PMS5003;69154;52.076;5.110;2023-05-15T09:54:23;47;44;
72329;PMS5003;69154;52.076;5.110;2023-05-15T09:56:48;48;46;
72329;PMS5003;69154;52.076;5.110;2023-05-15T09:59:14;52;46;
72329;PMS5003;69154;52.076;5.110;2023-05-15T10:01:38;50;47;
72329;PMS5003;69154;52.076;5.110;2023-05-15T10:04:05;57;54;
72329;PMS5003;69154;52.076;5.110;2023-05-15T10:06:33;51;48;
72329;PMS5003;69154;52.076;5.110;2023-05-15T10:08:54;55;49;
72329;PMS5003;69154;52.076;5.110;2023-05-15T10:11:20;49;47;
72329;PMS5003;69154;52.076;5.110;2023-05-15T10:13:46;61;56;
72329;PMS5003;69154;52.076;5.110;2023-05-15T10:16:11;66;62;
72329;PMS5003;69154;52.076;5.110;2023-05-15T10:18:36;59;54;
72329;PMS5003;69154;52.076;5.110;2023-05-15T10:21:02;68;61;
72329;PMS5003;69154;52.076;5.110;2023-05-15T10:23:27;61;60;
72329;PMS5003;69154;52.076;5.110;2023-05-15T10:25:53;58;53;
72329;PMS5003;69154;52.076;5.110;2023-05-15T10:28:17;67;57;
72329;PMS5003;69154;52.076;5.110;2023-05-15T10:30:43;62;59;
72329;PMS5003;69154;52.076;5.110;2023-05-15T10:33:08;65;57;
72329;PMS5003;69154;52.076;5.110;2023-05-15T10:35:34;69;63;
72329;PMS5003;69154;52.076;5.110;2023-05-15T10:37:59;64;60;
72329;PMS5003;69154;52.076;5.110;2023-05-15T10:40:24;70;62;
72329;PMS5003;69154;52.076;5.110;2023-05-15T10:42:54;62;59;
72329;PMS5003;69154;52.076;5.110;2023-05-15T10:45:14;63;57;
72329;PMS5003;69154;52.076;5.110;2023-05-15T10:47:40;78;69;
72329;PMS5003;69154;52.076;5.110;2023-05-15T10:50:05;75;65;
72329;PMS5003;69154;52.076;5.110;2023-05-15T10:52:30;76;70;
72329;PMS5003;69154;52.076;5.110;2023-05-15T10:54:55;80;72;
72329;PMS5003;69154;52.076;5.110;2023-05-15T10:57:21;72;66;
72329;PMS5003;69154;52.076;5.110;2023-05-15T10:59:45;80;74;
72329;PMS5003;69154;52.076;5.110;2023-05-15T11:02:20;64;62;
72329;PMS5003;69154;52.076;5.110;2023-05-15T11:04:37;76;67;
72329;PMS5003;69154;52.076;5.110;2023-05-15T11:07:10;64;59;
72329;PMS5003;69154;52.076;5.110;2023-05-15T11:09:32;59;54;
72329;PMS5003;69154;52.076;5.110;2023-05-15T11:11:53;62;58;
72329;PMS5003;69154;52.076;5.110;2023-05-15T11:14:18;58;55;
72329;PMS5003;69154;52.076;5.110;2023-05-15T11:17:00;68;58;
72329;PMS5003;69154;52.076;5.110;2023-05-15T11:19:20;52;48;
72329;PMS5003;69154;52.076;5.110;2023-05-15T11:21:34;59;57;
72329;PMS5003;69154;52.076;5.110;2023-05-15T11:24:02;64;59;
72329;PMS5003;69154;52.076;5.110;2023-05-15T11:26:31;55;50;
72329;PMS5003;69154;52.076;5.110;2023-05-15T11:28:51;53;50;
72329;PMS5003;69154;52.076;5.110;2023-05-15T11:31:16;52;50;
72329;PMS5003;69154;52.076;5.110;2023-05-15T11:33:41;47;44;
72329;PMS5003;69154;52.076;5.110;2023-05-15T11:36:06;46;42;
72329;PMS5003;69154;52.076;5.110;2023-05-15T11:38:35;49;44;
72329;PMS5003;69154;52.076;5.110;2023-05-15T11:40:57;39;38;
72329;PMS5003;69154;52.076;5.110;2023-05-15T11:43:23;41;40;
72329;PMS5003;69154;52.076;5.110;2023-05-15T11:45:49;37;36;
72329;PMS5003;69154;52.076;5.110;2023-05-15T11:48:14;46;44;
72329;PMS5003;69154;52.076;5.110;2023-05-15T11:50:39;36;33;
72329;PMS5003;69154;52.076;5.110;2023-05-15T11:53:05;36;34;
72329;PMS5003;69154;52.076;5.110;2023-05-15T11:55:30;37;35;
72329;PMS5003;69154;52.076;5.110;2023-05-15T11:57:56;36;35;
72329;PMS5003;69154;52.076;5.110;2023-05-15T12:00:21;39;35;
72329;PMS5003;69154;52.076;5.110;2023-05-15T12:02:47;28;27;
72329;PMS5003;69154;52.076;5.110;2023-05-15T12:05:13;39;38;
72329;PMS5003;69154;52.076;5.110;2023-05-15T12:07:40;30;26;
72329;PMS5003;69154;52.076;5.110;2023-05-15T12:10:04;28;27;
72329;PMS5003;69154;52.076;5.110;2023-05-15T12:12:29;31;29;
72329;PMS5003;69154;52.076;5.110;2023-05-15T12:14:56;32;32;
72329;PMS5003;69154;52.076;5.110;2023-05-15T12:17:19;26;25;
72329;PMS5003;69154;52.076;5.110;2023-05-15T12:19:44;30;29;
72329;PMS5003;69154;52.076;5.110;2023-05-15T12:22:10;24;23;
72329;PMS5003;69154;52.076;5.110;2023-05-15T12:24:36;24;23;
72329;PMS5003;69154;52.076;5.110;2023-05-15T12:27:02;24;22;
72329;PMS5003;69154;52.076;5.110;2023-05-15T12:29:27;18;18;
72329;PMS5003;69154;52.076;5.110;2023-05-15T12:31:53;22;22;
72329;PMS5003;69154;52.076;5.110;2023-05-15T12:34:18;20;20;
72329;PMS5003;69154;52.076;5.110;2023-05-15T12:36:43;20;20;
72329;PMS5003;69154;52.076;5.110;2023-05-15T12:39:09;18;18;
72329;PMS5003;69154;52.076;5.110;2023-05-15T12:41:35;19;18;
72329;PMS5003;69154;52.076;5.110;2023-05-15T12:44:00;18;17;
72329;PMS5003;69154;52.076;5.110;2023-05-15T12:46:28;22;22;
72329;PMS5003;69154;52.076;5.110;2023-05-15T12:48:51;22;21;
72329;PMS5003;69154;52.076;5.110;2023-05-15T12:51:16;27;27;
72329;PMS5003;69154;52.076;5.110;2023-05-15T12:53:42;27;26;
72329;PMS5003;69154;52.076;5.110;2023-05-15T12:56:07;23;23;
72329;PMS5003;69154;52.076;5.110;2023-05-15T12:58:33;31;30;
72329;PMS5003;69154;52.076;5.110;2023-05-15T13:00:58;30;27;
72329;PMS5003;69154;52.076;5.110;2023-05-15T13:03:23;26;24;
72329;PMS5003;69154;52.076;5.110;2023-05-15T13:05:49;24;23;
72329;PMS5003;69154;52.076;5.110;2023-05-15T13:08:15;26;23;
72329;PMS5003;69154;52.076;5.110;2023-05-15T13:10:39;22;22;
72329;PMS5003;69154;52.076;5.110;2023-05-15T13:13:05;28;27;
72329;PMS5003;69154;52.076;5.110;2023-05-15T13:15:31;22;20;
72329;PMS5003;69154;52.076;5.110;2023-05-15T13:17:59;26;25;
72329;PMS5003;69154;52.076;5.110;2023-05-15T13:20:21;22;20;
72329;PMS5003;69154;52.076;5.110;2023-05-15T13:22:46;19;18;
72329;PMS5003;69154;52.076;5.110;2023-05-15T13:25:15;18;17;
72329;PMS5003;69154;52.076;5.110;2023-05-15T13:27:36;15;15;
72329;PMS5003;69154;52.076;5.110;2023-05-15T13:30:02;14;14;
72329;PMS5003;69154;52.076;5.110;2023-05-15T13:32:27;16;16;
72329;PMS5003;69154;52.076;5.110;2023-05-15T13:34:52;14;14;
72329;PMS5003;69154;52.076;5.110;2023-05-15T13:37:18;13;13;
72329;PMS5003;69154;52.076;5.110;2023-05-15T13:39:43;13;11;
72329;PMS5003;69154;52.076;5.110;2023-05-15T13:42:08;12;12;
72329;PMS5003;69154;52.076;5.110;2023-05-15T13:44:33;16;10;
72329;PMS5003;69154;52.076;5.110;2023-05-15T13:46:58;12;11;
72329;PMS5003;69154;52.076;5.110;2023-05-15T13:49:24;12;12;
72329;PMS5003;69154;52.076;5.110;2023-05-15T13:51:49;14;14;
72329;PMS5003;69154;52.076;5.110;2023-05-15T13:54:15;13;12;
72329;PMS5003;69154;52.076;5.110;2023-05-15T13:56:40;14;13;
72329;PMS5003;69154;52.076;5.110;2023-05-15T13:59:05;13;12;
72329;PMS5003;69154;52.076;5.110;2023-05-15T14:01:31;12;10;
72329;PMS5003;69154;52.076;5.110;2023-05-15T14:03:56;11;11;
72329;PMS5003;69154;52.076;5.110;2023-05-15T14:06:22;16;12;
72329;PMS5003;69154;52.076;5.110;2023-05-15T14:08:48;10;9;
72329;PMS5003;69154;52.076;5.110;2023-05-15T14:11:13;12;10;
72329;PMS5003;69154;52.076;5.110;2023-05-15T14:13:39;11;10;
72329;PMS5003;69154;52.076;5.110;2023-05-15T14:16:04;13;11;
72329;PMS5003;69154;52.076;5.110;2023-05-15T14:18:29;8;8;
72329;PMS5003;69154;52.076;5.110;2023-05-15T14:20:54;11;10;
72329;PMS5003;69154;52.076;5.110;2023-05-15T14:23:19;11;10;
72329;PMS5003;69154;52.076;5.110;2023-05-15T14:25:45;9;9;
72329;PMS5003;69154;52.076;5.110;2023-05-15T14:28:10;8;8;
72329;PMS5003;69154;52.076;5.110;2023-05-15T14:30:35;10;9;
72329;PMS5003;69154;52.076;5.110;2023-05-15T14:33:00;8;8;
72329;PMS5003;69154;52.076;5.110;2023-05-15T14:35:25;7;7;
72329;PMS5003;69154;52.076;5.110;2023-05-15T14:37:51;8;8;
72329;PMS5003;69154;52.076;5.110;2023-05-15T14:40:16;6;6;
72329;PMS5003;69154;52.076;5.110;2023-05-15T14:42:41;7;7;
72329;PMS5003;69154;52.076;5.110;2023-05-15T14:45:06;7;7;
72329;PMS5003;69154;52.076;5.110;2023-05-15T14:47:31;8;8;
72329;PMS5003;69154;52.076;5.110;2023-05-15T14:49:56;6;6;
72329;PMS5003;69154;52.076;5.110;2023-05-15T14:52:21;6;6;
72329;PMS5003;69154;52.076;5.110;2023-05-15T14:54:46;7;7;
72329;PMS5003;69154;52.076;5.110;2023-05-15T14:57:11;6;5;
72329;PMS5003;69154;52.076;5.110;2023-05-15T14:59:37;7;6;
72329;PMS5003;69154;52.076;5.110;2023-05-15T15:02:02;5;4;
72329;PMS5003;69154;52.076;5.110;2023-05-15T15:04:27;6;6;
72329;PMS5003;69154;52.076;5.110;2023-05-15T15:06:52;5;5;
72329;PMS5003;69154;52.076;5.110;2023-05-15T15:09:17;5;5;
72329;PMS5003;69154;52.076;5.110;2023-05-15T15:11:42;4;4;
72329;PMS5003;69154;52.076;5.110;2023-05-15T15:14:07;3;3;
72329;PMS5003;69154;52.076;5.110;2023-05-15T15:16:32;5;4;
72329;PMS5003;69154;52.076;5.110;2023-05-15T15:18:58;5;5;
72329;PMS5003;69154;52.076;5.110;2023-05-15T15:21:23;6;5;
72329;PMS5003;69154;52.076;5.110;2023-05-15T15:23:48;7;6;
72329;PMS5003;69154;52.076;5.110;2023-05-15T15:26:13;6;6;
72329;PMS5003;69154;52.076;5.110;2023-05-15T15:28:39;8;8;
72329;PMS5003;69154;52.076;5.110;2023-05-15T15:31:04;9;9;
72329;PMS5003;69154;52.076;5.110;2023-05-15T15:33:29;7;6;
72329;PMS5003;69154;52.076;5.110;2023-05-15T15:35:54;6;6;
72329;PMS5003;69154;52.076;5.110;2023-05-15T15:38:19;9;8;
72329;PMS5003;69154;52.076;5.110;2023-05-15T15:40:44;9;9;
72329;PMS5003;69154;52.076;5.110;2023-05-15T15:43:10;9;8;
72329;PMS5003;69154;52.076;5.110;2023-05-15T15:45:35;7;7;
72329;PMS5003;69154;52.076;5.110;2023-05-15T15:48:00;6;6;
72329;PMS5003;69154;52.076;5.110;2023-05-15T15:50:26;6;6;
72329;PMS5003;69154;52.076;5.110;2023-05-15T15:52:52;7;5;
72329;PMS5003;69154;52.076;5.110;2023-05-15T15:55:16;7;6;
72329;PMS5003;69154;52.076;5.110;2023-05-15T15:57:41;7;7;
72329;PMS5003;69154;52.076;5.110;2023-05-15T16:00:07;7;6;
72329;PMS5003;69154;52.076;5.110;2023-05-15T16:02:32;6;5;
72329;PMS5003;69154;52.076;5.110;2023-05-15T16:04:57;7;6;
72329;PMS5003;69154;52.076;5.110;2023-05-15T16:07:23;7;7;